Time;durP1;ratioP1;P1;durP2;ratioP2;P2;SDS_P1;SDS_P2;PMS_P1;PMS_P2;Temp;Humidity;BMP_temperature;BMP_pressure;BME280_temperature;BME280_humidity;BME280_pressure;Samples;Min_cycle;Max_cycle;Signal;HPM_P1;HPM_P2
2022/05/10 00:02:22;;;;;;;5.90;2.70;;;17.70;81.90;;;;;;5022780;28;20237;-73
2022/05/10 00:04:51;;;;;;;9.57;3.00;;;17.70;82.20;;;;;;4993866;28;20672;-73
2022/05/10 00:07:20;;;;;;;4.57;3.10;;;17.70;82.50;;;;;;5007838;28;20205;-73
2022/05/10 00:09:47;;;;;;;3.30;3.00;;;17.60;82.60;;;;;;5008790;28;20205;-73
2022/05/10 00:12:14;;;;;;;6.53;3.23;;;17.60;82.50;;;;;;5008301;28;20704;-73
2022/05/10 00:14:41;;;;;;;5.23;2.97;;;17.60;82.20;;;;;;5008849;28;20730;-73
2022/05/10 00:17:10;;;;;;;4.83;3.13;;;17.60;82.30;;;;;;5008405;28;20349;-73
2022/05/10 00:19:36;;;;;;;3.67;3.13;;;17.60;82.60;;;;;;5008707;28;20696;-73
2022/05/10 00:22:03;;;;;;;3.37;3.00;;;17.60;82.50;;;;;;5008662;28;20255;-73
2022/05/10 00:24:30;;;;;;;3.50;3.20;;;17.50;82.90;;;;;;5016341;28;20278;-72
2022/05/10 00:26:56;;;;;;;3.23;2.93;;;17.40;83.10;;;;;;5028224;28;20679;-73
2022/05/10 00:29:23;;;;;;;5.13;2.80;;;17.40;83.30;;;;;;5008553;28;20892;-73
2022/05/10 00:31:50;;;;;;;4.73;3.50;;;17.40;83.30;;;;;;5008433;28;20279;-72
2022/05/10 00:34:18;;;;;;;3.37;3.07;;;17.40;83.40;;;;;;5008579;28;20213;-73
2022/05/10 00:36:45;;;;;;;3.27;2.97;;;17.40;84.00;;;;;;5008735;28;20205;-73
2022/05/10 00:39:13;;;;;;;4.10;3.20;;;17.40;83.50;;;;;;5008339;28;20264;-73
2022/05/10 00:41:51;;;;;;;3.60;2.90;;;17.40;83.50;;;;;;5008019;28;20703;-73
2022/05/10 00:44:22;;;;;;;4.07;3.30;;;17.30;83.50;;;;;;5008355;28;20228;-73
2022/05/10 00:47:00;;;;;;;7.40;3.47;;;17.30;83.60;;;;;;5008803;28;20206;-73
2022/05/10 00:49:33;;;;;;;4.80;3.17;;;17.30;83.80;;;;;;5007632;28;20190;-73
2022/05/10 00:52:06;;;;;;;4.63;3.27;;;17.30;84.00;;;;;;5008268;28;20217;-73
2022/05/10 00:54:40;;;;;;;3.97;3.13;;;17.20;84.30;;;;;;5008185;28;20237;-73
2022/05/10 00:57:13;;;;;;;6.00;3.10;;;17.20;84.40;;;;;;5008315;28;20611;-72
2022/05/10 00:59:50;;;;;;;4.50;3.20;;;17.20;84.20;;;;;;5019092;28;20205;-72
2022/05/10 01:02:29;;;;;;;4.30;3.00;;;17.20;84.50;;;;;;5010326;28;21012;-74
2022/05/10 01:05:03;;;;;;;5.03;3.30;;;17.20;84.50;;;;;;5007895;28;20213;-75
2022/05/10 01:07:35;;;;;;;4.37;2.80;;;17.10;84.40;;;;;;5008026;28;20197;-75
2022/05/10 01:10:08;;;;;;;4.43;3.20;;;17.10;84.70;;;;;;5008130;28;20201;-76
2022/05/10 01:12:41;;;;;;;4.50;3.20;;;17.00;84.50;;;;;;5008097;28;20227;-75
2022/05/10 01:15:13;;;;;;;4.43;3.13;;;17.00;84.90;;;;;;5007918;28;20205;-76
2022/05/10 01:17:40;;;;;;;3.97;3.03;;;16.90;85.10;;;;;;5007912;28;20625;-76
2022/05/10 01:20:10;;;;;;;3.77;3.40;;;16.90;85.00;;;;;;5004677;28;20323;-76
2022/05/10 01:22:58;;;;;;;4.00;3.40;;;16.90;85.30;;;;;;4988561;28;20203;-75
2022/05/10 01:25:48;;;;;;;5.93;3.67;;;16.80;85.30;;;;;;5005545;28;20263;-75
2022/05/10 01:28:24;;;;;;;5.67;3.37;;;16.90;85.10;;;;;;5008041;28;20202;-76
2022/05/10 01:30:51;;;;;;;4.10;3.20;;;16.90;84.80;;;;;;5007443;28;20193;-72
2022/05/10 01:33:31;;;;;;;6.47;3.30;;;16.80;84.90;;;;;;5007317;28;20652;-72
2022/05/10 01:36:20;;;;;;;4.17;3.37;;;16.70;85.10;;;;;;5007939;28;20193;-72
2022/05/10 01:38:55;;;;;;;6.13;3.40;;;16.70;85.30;;;;;;5007352;28;20644;-73
2022/05/10 01:41:34;;;;;;;4.43;3.20;;;16.70;85.20;;;;;;5007568;28;20201;-73
2022/05/10 01:44:08;;;;;;;5.80;3.80;;;16.70;85.30;;;;;;5007955;28;20208;-74
2022/05/10 01:46:35;;;;;;;5.60;3.60;;;16.70;85.50;;;;;;5007676;28;20202;-74
2022/05/10 01:49:09;;;;;;;5.87;3.33;;;16.70;85.60;;;;;;5007983;28;20237;-74
2022/05/10 01:51:44;;;;;;;4.13;3.57;;;16.60;85.90;;;;;;5007902;28;20263;-75
2022/05/10 01:54:42;;;;;;;5.30;3.20;;;16.60;86.10;;;;;;5007419;28;20253;-74
2022/05/10 01:57:12;;;;;;;5.97;3.40;;;16.60;86.20;;;;;;5007533;28;20197;-74
2022/05/10 01:59:49;;;;;;;4.10;3.60;;;16.60;86.60;;;;;;5018654;28;20193;-75
2022/05/10 02:02:18;;;;;;;4.33;3.27;;;16.60;86.60;;;;;;5013003;28;20582;-74
2022/05/10 02:04:49;;;;;;;4.37;3.50;;;16.60;87.20;;;;;;5000776;28;20209;-74
2022/05/10 02:07:21;;;;;;;4.77;3.33;;;16.60;87.60;;;;;;5011523;28;20194;-75
2022/05/10 02:09:57;;;;;;;4.33;3.17;;;16.50;87.20;;;;;;5010842;28;20539;-75
2022/05/10 02:12:29;;;;;;;6.00;3.43;;;16.60;87.60;;;;;;5011017;28;20225;-75
2022/05/10 02:15:01;;;;;;;4.60;3.57;;;16.60;87.30;;;;;;5011389;28;20202;-75
2022/05/10 02:17:34;;;;;;;3.87;3.10;;;16.50;87.20;;;;;;5011032;28;20218;-73
2022/05/10 02:20:06;;;;;;;5.00;3.37;;;16.50;87.40;;;;;;5007079;28;20220;-72
2022/05/10 02:22:37;;;;;;;5.87;3.60;;;16.50;87.90;;;;;;5008567;28;20213;-72
2022/05/10 02:25:10;;;;;;;5.60;3.60;;;16.50;88.10;;;;;;5010769;28;20190;-86
2022/05/10 02:27:41;;;;;;;6.20;3.70;;;16.40;87.80;;;;;;5010944;28;20608;-73
2022/05/10 02:30:12;;;;;;;5.77;3.57;;;16.50;88.30;;;;;;5010613;28;20205;-73
2022/05/10 02:35:26;;;;;;;3.50;3.20;;;16.40;88.20;;;;;;5006709;28;20235;-74
2022/05/10 02:37:53;;;;;;;9.83;4.07;;;16.40;88.90;;;;;;4998516;28;20241;-73
2022/05/10 02:40:20;;;;;;;5.07;3.20;;;16.30;88.60;;;;;;4989041;28;20245;-73
2022/05/10 02:42:48;;;;;;;4.47;3.70;;;16.30;88.90;;;;;;5003158;28;20209;-73
2022/05/10 02:45:18;;;;;;;6.33;3.80;;;16.20;88.30;;;;;;5008128;28;20216;-72
2022/05/10 02:47:47;;;;;;;4.27;3.83;;;16.20;89.00;;;;;;5008434;28;20642;-72
2022/05/10 02:50:22;;;;;;;5.53;3.77;;;16.20;90.00;;;;;;4996440;28;20224;-73
2022/05/10 02:52:49;;;;;;;4.40;3.73;;;16.10;89.70;;;;;;4994098;28;20229;-73
2022/05/10 02:55:19;;;;;;;6.83;3.70;;;16.10;89.70;;;;;;5008300;28;20225;-73
2022/05/10 02:57:47;;;;;;;4.43;3.80;;;16.20;89.60;;;;;;5008223;28;20216;-72
2022/05/10 03:00:20;;;;;;;7.37;3.50;;;16.10;89.30;;;;;;5018558;28;20208;-73
2022/05/10 03:02:53;;;;;;;6.00;3.60;;;16.10;89.60;;;;;;5006563;28;20240;-73
2022/05/10 03:05:19;;;;;;;4.07;3.37;;;16.10;89.60;;;;;;5007315;28;20213;-74
2022/05/10 03:07:46;;;;;;;4.10;3.73;;;16.00;89.30;;;;;;5010460;28;20213;-74
2022/05/10 03:10:13;;;;;;;5.13;3.83;;;15.90;88.40;;;;;;5010158;28;20210;-73
2022/05/10 03:12:40;;;;;;;5.57;3.73;;;15.90;89.30;;;;;;5009907;28;20303;-73
2022/05/10 03:15:09;;;;;;;4.53;3.93;;;15.90;89.30;;;;;;5010156;28;20244;-73
2022/05/10 03:17:38;;;;;;;3.87;3.50;;;15.90;89.80;;;;;;5010075;28;20218;-73
2022/05/10 03:20:05;;;;;;;4.83;3.73;;;15.90;89.80;;;;;;5009886;28;20214;-74
2022/05/10 03:22:32;;;;;;;5.30;3.57;;;15.90;90.00;;;;;;5009930;28;20206;-73
2022/05/10 03:24:59;;;;;;;4.20;3.43;;;15.80;89.80;;;;;;5009703;28;20229;-73
2022/05/10 03:27:25;;;;;;;4.27;3.87;;;15.80;90.00;;;;;;5009886;28;20263;-73
2022/05/10 03:29:52;;;;;;;6.33;3.93;;;15.80;90.10;;;;;;5009757;28;20210;-73
2022/05/10 03:32:18;;;;;;;4.97;4.00;;;15.80;90.00;;;;;;5009697;28;20209;-73
2022/05/10 03:34:57;;;;;;;4.63;3.80;;;15.80;89.90;;;;;;4994998;28;20225;-73
2022/05/10 03:37:25;;;;;;;5.93;3.93;;;15.80;90.10;;;;;;4990012;28;20700;-73
2022/05/10 03:39:52;;;;;;;5.03;3.70;;;15.70;90.00;;;;;;4989932;28;20229;-72
2022/05/10 03:42:18;;;;;;;5.00;3.63;;;15.60;90.20;;;;;;5000279;28;20240;-73
2022/05/10 03:44:49;;;;;;;4.00;3.60;;;15.60;90.40;;;;;;5009383;28;20620;-73
2022/05/10 03:47:17;;;;;;;7.20;3.67;;;15.60;90.20;;;;;;5009508;28;20296;-74
2022/05/10 03:49:45;;;;;;;9.40;4.07;;;15.60;90.40;;;;;;5009510;28;20209;-73
2022/05/10 03:52:16;;;;;;;5.00;4.57;;;15.50;90.30;;;;;;5009064;28;20205;-73
2022/05/10 03:54:44;;;;;;;4.23;3.63;;;15.40;90.20;;;;;;5008894;28;20250;-73
2022/05/10 03:57:11;;;;;;;5.00;4.10;;;15.40;90.40;;;;;;5009071;28;20267;-73
2022/05/10 03:59:42;;;;;;;5.23;3.63;;;15.40;90.40;;;;;;5019858;28;20208;-73
2022/05/10 04:02:11;;;;;;;5.73;4.23;;;15.40;90.70;;;;;;5013040;28;20272;-74
2022/05/10 04:04:38;;;;;;;4.70;4.10;;;15.40;90.50;;;;;;4995571;28;20214;-73
2022/05/10 04:07:05;;;;;;;4.00;3.63;;;15.40;90.60;;;;;;4989497;28;20210;-73
2022/05/10 04:09:34;;;;;;;4.93;4.27;;;15.30;90.70;;;;;;4997375;28;20209;-73
2022/05/10 04:12:01;;;;;;;7.67;4.20;;;15.30;90.60;;;;;;5008787;28;20252;-73
2022/05/10 04:14:27;;;;;;;7.03;4.10;;;15.30;90.90;;;;;;5008488;28;20655;-73
2022/05/10 04:16:54;;;;;;;5.60;4.10;;;15.20;90.80;;;;;;5009182;28;20206;-73
2022/05/10 04:19:21;;;;;;;7.53;3.80;;;15.30;91.10;;;;;;5008917;28;20674;-73
2022/05/10 04:21:49;;;;;;;5.33;3.80;;;15.30;91.00;;;;;;5009132;28;20263;-74
2022/05/10 04:24:17;;;;;;;6.23;3.90;;;15.30;91.20;;;;;;5008311;28;20221;-73
2022/05/10 04:26:45;;;;;;;5.17;4.30;;;15.30;91.30;;;;;;5008866;28;20241;-73
2022/05/10 04:29:12;;;;;;;7.00;4.30;;;15.30;91.20;;;;;;5008926;28;20264;-73
2022/05/10 04:31:39;;;;;;;8.17;3.90;;;15.30;91.10;;;;;;5009035;28;20209;-73
2022/05/10 04:34:06;;;;;;;7.27;4.10;;;15.30;91.00;;;;;;5008579;28;20239;-73
2022/05/10 04:36:33;;;;;;;6.10;4.13;;;15.30;91.30;;;;;;5008948;28;20209;-73
2022/05/10 04:38:59;;;;;;;5.50;3.80;;;15.20;91.30;;;;;;5008551;28;20639;-73
2022/05/10 04:41:28;;;;;;;4.63;4.20;;;15.20;91.20;;;;;;5008228;28;20283;-73
2022/05/10 04:43:59;;;;;;;5.00;3.87;;;15.20;91.30;;;;;;5008477;28;20212;-73
2022/05/10 04:46:26;;;;;;;5.30;4.17;;;15.20;91.30;;;;;;5008489;28;20201;-73
2022/05/10 04:48:53;;;;;;;5.07;3.60;;;15.20;91.70;;;;;;5008888;28;20267;-73
2022/05/10 04:51:20;;;;;;;5.17;3.67;;;15.20;91.40;;;;;;5008279;28;20284;-74
2022/05/10 04:53:47;;;;;;;4.73;4.10;;;15.10;91.60;;;;;;5007883;28;20229;-73
2022/05/10 04:56:13;;;;;;;8.93;4.10;;;15.20;91.90;;;;;;5007835;28;20555;-73
2022/05/10 04:58:40;;;;;;;4.63;3.57;;;15.20;91.60;;;;;;5011051;28;20209;-73
2022/05/10 05:01:15;;;;;;;4.67;3.87;;;15.30;91.50;;;;;;5020688;28;20205;-73
2022/05/10 05:03:47;;;;;;;7.87;4.37;;;15.30;91.50;;;;;;4967403;28;20260;-74
2022/05/10 05:06:14;;;;;;;4.47;3.90;;;15.40;91.60;;;;;;4967532;28;20211;-73
2022/05/10 05:08:41;;;;;;;4.40;3.60;;;15.40;91.70;;;;;;4969095;28;20203;-74
2022/05/10 05:11:07;;;;;;;4.67;3.67;;;15.50;91.80;;;;;;4968529;28;20713;-73
2022/05/10 05:13:34;;;;;;;8.10;4.20;;;15.50;91.90;;;;;;4968788;28;20281;-73
2022/05/10 05:16:01;;;;;;;5.90;3.60;;;15.50;91.70;;;;;;4968675;28;20673;-73
2022/05/10 05:18:29;;;;;;;6.30;4.03;;;15.60;91.70;;;;;;4968366;28;20226;-73
2022/05/10 05:20:56;;;;;;;4.53;4.00;;;15.60;91.90;;;;;;4969023;28;20375;-73
2022/05/10 05:23:24;;;;;;;6.40;3.87;;;15.60;92.10;;;;;;4968577;28;20230;-73
2022/05/10 05:25:52;;;;;;;7.87;4.00;;;15.70;92.00;;;;;;4968849;28;20272;-73
2022/05/10 05:28:19;;;;;;;4.50;3.60;;;15.70;92.00;;;;;;4968777;28;20246;-73
2022/05/10 05:30:46;;;;;;;4.87;3.90;;;15.70;92.00;;;;;;4968912;28;20215;-73
2022/05/10 05:33:15;;;;;;;6.83;4.00;;;15.80;92.10;;;;;;4968231;28;20211;-73
2022/05/10 05:35:43;;;;;;;4.33;3.67;;;15.80;92.00;;;;;;4969019;28;20214;-73
2022/05/10 05:38:11;;;;;;;9.57;3.97;;;15.80;91.80;;;;;;4972327;28;20662;-74
2022/05/10 05:40:38;;;;;;;5.17;3.97;;;15.90;92.00;;;;;;4972759;28;20210;-73
2022/05/10 05:43:08;;;;;;;5.30;3.67;;;15.90;92.00;;;;;;4972334;28;20210;-73
2022/05/10 05:45:42;;;;;;;6.40;3.97;;;16.00;92.20;;;;;;4972829;28;20236;-73
2022/05/10 05:48:09;;;;;;;4.63;3.80;;;16.00;91.90;;;;;;4972758;28;20202;-73
2022/05/10 05:50:38;;;;;;;6.40;3.77;;;16.10;91.90;;;;;;4972630;28;20211;-74
2022/05/10 05:53:07;;;;;;;7.07;4.13;;;16.10;91.90;;;;;;4972317;28;20215;-73
2022/05/10 05:55:34;;;;;;;16.47;3.67;;;16.10;91.80;;;;;;4972604;28;20211;-75
2022/05/10 05:58:03;;;;;;;6.13;3.77;;;16.20;91.70;;;;;;4972359;28;20215;-73
2022/05/10 06:00:32;;;;;;;5.67;3.80;;;16.30;91.80;;;;;;4972203;28;20237;-74
2022/05/10 06:03:05;;;;;;;17.23;4.20;;;16.30;91.90;;;;;;5000225;28;20299;-74
2022/05/10 06:05:32;;;;;;;18.03;4.97;;;16.40;92.00;;;;;;4999666;28;20603;-74
2022/05/10 06:08:00;;;;;;;4.63;3.33;;;16.40;92.00;;;;;;5011232;28;20213;-74
2022/05/10 06:10:28;;;;;;;5.23;4.10;;;16.50;92.10;;;;;;5011015;28;20214;-74
2022/05/10 06:13:13;;;;;;;5.83;3.80;;;16.50;92.50;;;;;;5011145;28;20205;-74
2022/05/10 06:15:40;;;;;;;4.93;3.80;;;16.50;92.80;;;;;;4991804;28;21065;-73
2022/05/10 06:18:07;;;;;;;5.83;3.47;;;16.50;92.90;;;;;;4991486;28;20225;-73
2022/05/10 06:20:34;;;;;;;9.77;3.43;;;16.50;93.00;;;;;;4991681;28;20346;-73
2022/05/10 06:23:04;;;;;;;13.20;4.33;;;16.60;93.20;;;;;;4997402;28;20668;-74
2022/05/10 06:25:32;;;;;;;5.30;3.90;;;16.60;93.20;;;;;;5010687;28;20202;-74
2022/05/10 06:27:59;;;;;;;13.83;4.90;;;16.60;93.30;;;;;;5010542;28;20251;-74
2022/05/10 06:30:26;;;;;;;10.50;3.77;;;16.70;93.40;;;;;;5010783;28;20263;-73
2022/05/10 06:32:57;;;;;;;7.30;3.73;;;16.70;93.60;;;;;;5010832;28;20259;-74
2022/05/10 06:35:29;;;;;;;4.93;3.93;;;16.70;93.50;;;;;;4991057;28;20233;-74
2022/05/10 06:40:43;;;;;;;4.57;3.60;;;16.80;93.40;;;;;;4991091;28;20205;-74
2022/05/10 06:43:10;;;;;;;4.47;3.77;;;16.80;93.20;;;;;;5007813;28;20268;-74
2022/05/10 06:45:37;;;;;;;4.20;3.80;;;16.80;93.10;;;;;;5010578;28;20255;-74
2022/05/10 06:48:04;;;;;;;10.40;3.83;;;16.90;93.40;;;;;;5010097;28;20205;-74
2022/05/10 06:50:37;;;;;;;11.00;4.13;;;16.90;93.40;;;;;;5010518;28;20300;-74
2022/05/10 06:53:04;;;;;;;5.23;4.20;;;16.90;94.00;;;;;;5010567;28;20216;-74
2022/05/10 06:55:33;;;;;;;8.00;3.63;;;16.90;94.00;;;;;;5010143;28;20237;-74
2022/05/10 06:58:01;;;;;;;3.80;3.40;;;17.00;94.00;;;;;;5010312;28;20209;-74
2022/05/10 07:00:29;;;;;;;4.90;3.63;;;17.00;94.10;;;;;;5025927;28;20205;-74
2022/05/10 07:02:56;;;;;;;4.93;3.50;;;17.00;94.30;;;;;;5009937;28;20261;-74
2022/05/10 07:05:24;;;;;;;5.33;3.87;;;17.00;94.60;;;;;;4990666;28;20244;-74
2022/05/10 07:07:50;;;;;;;6.33;3.40;;;17.10;94.60;;;;;;4990611;28;20210;-74
2022/05/10 07:10:18;;;;;;;7.13;3.83;;;17.10;94.40;;;;;;4997211;28;20209;-74
2022/05/10 07:12:45;;;;;;;3.97;3.50;;;17.20;94.20;;;;;;5009652;28;20213;-74
2022/05/10 07:15:16;;;;;;;3.70;3.13;;;17.20;94.00;;;;;;5009451;28;20644;-74
2022/05/10 07:17:42;;;;;;;7.03;3.40;;;17.30;93.50;;;;;;5009571;28;20637;-74
2022/05/10 07:20:11;;;;;;;4.90;3.00;;;17.40;93.40;;;;;;5009822;28;20213;-74
2022/05/10 07:22:39;;;;;;;5.70;3.40;;;17.40;93.30;;;;;;5009770;28;20251;-74
2022/05/10 07:25:07;;;;;;;3.47;3.13;;;17.50;93.30;;;;;;5009268;28;20206;-74
2022/05/10 07:27:33;;;;;;;4.00;3.10;;;17.50;93.00;;;;;;5009714;28;20210;-74
2022/05/10 07:30:00;;;;;;;6.53;3.60;;;17.60;93.30;;;;;;5009840;28;20210;-74
2022/05/10 07:32:29;;;;;;;4.53;3.30;;;17.70;93.10;;;;;;5009404;28;20218;-74
2022/05/10 07:34:55;;;;;;;6.40;3.40;;;17.80;93.40;;;;;;5009609;28;20272;-74
2022/05/10 07:37:22;;;;;;;5.60;3.30;;;17.80;93.70;;;;;;5008991;28;20611;-74
2022/05/10 07:39:48;;;;;;;6.87;3.70;;;17.80;93.60;;;;;;5009339;28;20259;-74
2022/05/10 07:42:15;;;;;;;9.90;3.33;;;17.90;93.80;;;;;;5009018;28;20213;-74
2022/05/10 07:44:42;;;;;;;11.10;3.73;;;18.00;93.70;;;;;;5009366;28;20210;-74
2022/05/10 07:47:09;;;;;;;12.60;3.87;;;18.10;93.50;;;;;;5009448;28;20804;-74
2022/05/10 07:49:38;;;;;;;6.07;3.80;;;18.20;93.30;;;;;;5009493;28;20205;-74
2022/05/10 07:52:06;;;;;;;12.47;4.57;;;18.20;93.50;;;;;;5009124;28;20629;-74
2022/05/10 07:54:32;;;;;;;8.03;3.50;;;18.30;93.40;;;;;;5008523;28;20270;-74
2022/05/10 07:57:02;;;;;;;8.30;3.30;;;18.30;93.40;;;;;;5008964;28;20938;-74
2022/05/10 07:59:29;;;;;;;4.53;3.03;;;18.30;93.50;;;;;;4988952;28;20265;-75
2022/05/10 08:01:56;;;;;;;5.77;3.67;;;18.40;93.20;;;;;;4989211;28;20238;-74
2022/05/10 08:04:22;;;;;;;18.87;4.57;;;18.50;93.30;;;;;;5000966;28;20213;-74
2022/05/10 08:06:50;;;;;;;4.97;3.20;;;18.50;93.40;;;;;;5009381;28;20232;-74
2022/05/10 08:09:19;;;;;;;3.50;3.20;;;18.60;93.30;;;;;;5008840;28;20220;-74
2022/05/10 08:11:46;;;;;;;4.73;3.17;;;18.60;93.20;;;;;;5008853;28;20209;-74
2022/05/10 08:14:13;;;;;;;4.33;2.80;;;18.60;93.60;;;;;;5008816;28;20234;-74
2022/05/10 08:16:40;;;;;;;4.53;3.00;;;18.60;93.50;;;;;;5009132;28;20201;-74
2022/05/10 08:19:06;;;;;;;6.30;3.07;;;18.60;93.60;;;;;;5008774;28;20217;-74
2022/05/10 08:21:33;;;;;;;6.30;3.20;;;18.60;93.80;;;;;;5008928;28;20216;-73
2022/05/10 08:24:02;;;;;;;8.50;3.50;;;18.70;93.20;;;;;;5008665;28;20201;-74
2022/05/10 08:26:29;;;;;;;7.50;3.13;;;18.70;93.60;;;;;;5008685;28;20587;-74
2022/05/10 08:28:56;;;;;;;6.83;3.10;;;18.70;93.70;;;;;;5008852;28;20568;-74
2022/05/10 08:31:23;;;;;;;5.17;3.03;;;18.80;94.10;;;;;;5008625;28;20217;-74
2022/05/10 08:33:49;;;;;;;3.33;2.87;;;18.90;93.70;;;;;;5008761;28;20289;-74
2022/05/10 08:36:16;;;;;;;6.40;2.83;;;18.90;93.50;;;;;;5008313;28;20284;-74
2022/05/10 08:38:43;;;;;;;4.23;2.90;;;19.00;93.50;;;;;;5008354;28;20206;-74
2022/05/10 08:41:15;;;;;;;6.60;3.13;;;19.10;93.70;;;;;;5008328;28;20210;-74
2022/05/10 08:43:44;;;;;;;5.10;2.80;;;19.10;93.40;;;;;;5008553;28;20244;-74
2022/05/10 08:46:16;;;;;;;3.97;2.93;;;19.20;93.30;;;;;;5008055;28;20213;-74
2022/05/10 08:48:45;;;;;;;3.03;2.60;;;19.30;92.80;;;;;;5008608;28;20213;-74
2022/05/10 08:51:13;;;;;;;3.20;2.80;;;19.30;92.30;;;;;;5008476;28;20213;-74
2022/05/10 08:53:40;;;;;;;6.20;2.80;;;19.40;92.40;;;;;;5005092;28;20233;-74
2022/05/10 08:56:19;;;;;;;2.90;2.37;;;19.40;92.60;;;;;;5003813;28;20261;-74
2022/05/10 08:58:52;;;;;;;3.27;2.50;;;19.40;91.30;;;;;;5011655;28;20244;-74
2022/05/10 09:01:22;;;;;;;7.73;2.90;;;19.60;91.40;;;;;;5018949;28;20202;-74
2022/05/10 09:03:56;;;;;;;4.40;2.80;;;19.60;91.80;;;;;;5007890;28;20225;-74
2022/05/10 09:06:34;;;;;;;4.80;2.87;;;19.70;91.50;;;;;;5008110;28;20213;-74
2022/05/10 09:09:13;;;;;;;4.70;2.80;;;19.70;91.90;;;;;;5007995;28;20795;-74
2022/05/10 09:11:49;;;;;;;3.03;2.63;;;19.80;91.50;;;;;;5007916;28;20268;-74
2022/05/10 09:14:15;;;;;;;28.13;3.73;;;19.90;92.00;;;;;;5007834;28;20252;-74
2022/05/10 09:16:42;;;;;;;6.63;2.67;;;20.00;92.30;;;;;;5007915;28;20209;-74
2022/05/10 09:19:12;;;;;;;4.27;2.57;;;20.10;91.90;;;;;;5007785;28;20656;-74
2022/05/10 09:21:47;;;;;;;5.23;2.70;;;20.10;91.90;;;;;;5007607;28;20735;-74
2022/05/10 09:24:25;;;;;;;6.00;2.53;;;20.10;92.10;;;;;;5007540;28;20633;-74
2022/05/10 09:26:58;;;;;;;4.83;2.57;;;20.20;90.70;;;;;;5007986;28;20207;-74
2022/05/10 09:29:33;;;;;;;4.37;2.53;;;20.20;91.10;;;;;;5008001;28;20201;-74
2022/05/10 09:34:56;;;;;;;4.73;2.50;;;20.40;91.80;;;;;;5007459;28;20225;-74
2022/05/10 09:37:26;;;;;;;6.97;3.33;;;20.50;92.70;;;;;;5007796;28;20213;-74
2022/05/10 09:40:12;;;;;;;6.80;2.70;;;20.50;91.80;;;;;;5007455;28;20220;-74
2022/05/10 09:42:44;;;;;;;3.77;2.60;;;20.60;91.20;;;;;;5007512;28;20209;-74
2022/05/10 09:45:15;;;;;;;4.33;2.63;;;20.60;91.40;;;;;;5007538;28;20672;-74
2022/05/10 09:47:55;;;;;;;8.80;2.87;;;20.70;91.10;;;;;;5020987;28;20999;-74
2022/05/10 09:50:28;;;;;;;3.90;2.33;;;20.70;90.90;;;;;;5027161;28;20267;-74
2022/05/10 09:53:10;;;;;;;4.07;2.33;;;20.80;90.80;;;;;;4988137;28;20257;-74
2022/05/10 09:55:37;;;;;;;4.63;2.70;;;20.90;90.50;;;;;;4988209;28;20226;-74
2022/05/10 09:58:16;;;;;;;3.55;2.85;;;21.00;90.00;;;;;;4987653;28;20972;-74
2022/05/10 10:00:44;;;;;;;16.27;3.90;;;21.10;90.00;;;;;;4991519;28;20197;-74
2022/05/10 10:03:26;;;;;;;5.10;2.60;;;21.20;90.20;;;;;;5007110;28;20316;-74
2022/05/10 10:05:54;;;;;;;8.95;2.83;;;21.30;89.60;;;;;;5007513;28;20292;-74
2022/05/10 10:08:38;;;;;;;4.82;2.70;;;21.30;89.10;;;;;;5007216;28;20213;-74
2022/05/10 10:11:25;;;;;;;5.20;2.50;;;21.40;90.60;;;;;;5007522;28;20217;-74
2022/05/10 10:13:56;;;;;;;4.53;2.28;;;21.40;91.00;;;;;;5007364;28;20276;-74
2022/05/10 10:16:25;;;;;;;4.75;2.40;;;21.50;90.20;;;;;;5007302;28;20289;-74
2022/05/10 10:18:55;;;;;;;3.33;2.38;;;21.60;89.60;;;;;;5007411;28;20210;-74
2022/05/10 10:21:29;;;;;;;2.50;2.30;;;21.70;88.60;;;;;;5007728;28;20299;-74
2022/05/10 10:23:59;;;;;;;3.33;2.22;;;21.80;90.40;;;;;;5010653;28;20205;-74
2022/05/10 10:26:36;;;;;;;3.67;2.13;;;21.90;88.30;;;;;;5010920;28;20220;-74
2022/05/10 10:29:16;;;;;;;4.20;2.50;;;22.00;88.10;;;;;;5010890;28;20228;-74
2022/05/10 10:31:47;;;;;;;2.60;2.40;;;22.00;89.50;;;;;;5010943;28;20197;-74
2022/05/10 10:34:21;;;;;;;2.50;2.30;;;22.10;90.20;;;;;;5010601;28;20205;-74
2022/05/10 10:36:54;;;;;;;4.18;2.50;;;22.20;90.90;;;;;;5010701;28;20626;-74
2022/05/10 10:39:28;;;;;;;3.22;1.90;;;22.20;90.00;;;;;;5010973;28;20609;-74
2022/05/10 10:42:01;;;;;;;4.55;2.47;;;22.30;89.00;;;;;;5010596;28;20215;-74
2022/05/10 10:44:31;;;;;;;2.25;2.05;;;22.40;89.10;;;;;;5010813;28;20202;-74
2022/05/10 10:47:09;;;;;;;3.17;2.20;;;22.40;88.00;;;;;;5015883;28;20201;-74
2022/05/10 10:49:42;;;;;;;2.20;2.10;;;22.50;90.00;;;;;;5010593;28;20720;-74
2022/05/10 10:52:09;;;;;;;2.85;2.30;;;22.60;90.60;;;;;;5010412;28;20248;-74
2022/05/10 10:54:37;;;;;;;2.10;2.00;;;22.70;91.00;;;;;;5010084;28;20230;-75
2022/05/10 10:57:14;;;;;;;2.30;2.10;;;22.70;89.20;;;;;;5010310;28;20585;-74
2022/05/10 11:00:03;;;;;;;2.63;2.05;;;22.80;87.10;;;;;;5021418;28;20197;-75
2022/05/10 11:03:07;;;;;;;2.22;2.00;;;23.00;85.50;;;;;;5026107;28;20237;-74
2022/05/10 11:06:09;;;;;;;3.65;2.30;;;23.20;87.50;;;;;;4990904;28;20205;-74
2022/05/10 11:09:03;;;;;;;4.18;2.20;;;23.30;87.00;;;;;;4990635;28;20194;-73
2022/05/10 11:11:42;;;;;;;2.20;2.10;;;23.50;86.80;;;;;;4987867;28;20206;-73
2022/05/10 11:14:23;;;;;;;4.10;2.60;;;23.70;86.30;;;;;;4990424;28;20197;-73
2022/05/10 11:17:00;;;;;;;4.72;2.45;;;23.70;83.90;;;;;;4990504;28;20233;-73
2022/05/10 11:19:49;;;;;;;2.33;2.05;;;23.80;83.60;;;;;;4990579;28;20265;-73
2022/05/10 11:22:30;;;;;;;2.28;2.15;;;23.90;83.90;;;;;;4990134;28;20195;-73
2022/05/10 11:25:08;;;;;;;3.63;2.42;;;24.00;85.20;;;;;;5009819;28;20235;-73
2022/05/10 11:27:50;;;;;;;3.63;2.22;;;24.00;84.40;;;;;;5009731;28;20657;-73
2022/05/10 11:30:20;;;;;;;3.65;2.38;;;24.00;84.90;;;;;;5009604;28;20675;-73
2022/05/10 11:33:12;;;;;;;26.45;4.22;;;24.00;84.20;;;;;;5010093;28;20288;-73
2022/05/10 11:36:00;;;;;;;2.53;2.33;;;24.00;85.30;;;;;;4990398;28;20242;-73
2022/05/10 11:38:51;;;;;;;2.75;2.20;;;24.00;84.40;;;;;;4989885;28;20234;-73
2022/05/10 11:41:28;;;;;;;2.22;2.13;;;24.10;85.60;;;;;;4991794;28;20190;-73
2022/05/10 11:44:16;;;;;;;3.58;2.45;;;24.10;86.70;;;;;;5009833;28;20201;-73
2022/05/10 11:47:17;;;;;;;7.57;2.92;;;24.20;86.70;;;;;;5015119;28;20547;-73
2022/05/10 11:50:07;;;;;;;7.15;3.08;;;24.30;86.10;;;;;;5029821;28;20192;-74
2022/05/10 11:53:06;;;;;;;3.00;2.35;;;24.40;85.50;;;;;;5014047;28;20206;-73
2022/05/10 11:55:36;;;;;;;3.53;2.40;;;24.50;84.60;;;;;;4987240;28;20283;-73
2022/05/10 11:58:07;;;;;;;2.58;2.47;;;24.70;83.40;;;;;;5009557;28;20617;-74
2022/05/10 12:00:58;;;;;;;3.00;2.80;;;24.90;82.50;;;;;;5027890;28;20197;-73
2022/05/10 12:04:05;;;;;;;2.70;2.50;;;25.00;83.80;;;;;;5015163;28;20497;-74
2022/05/10 12:06:51;;;;;;;3.10;2.50;;;25.10;83.70;;;;;;5009372;28;20193;-73
2022/05/10 12:09:57;;;;;;;2.78;2.33;;;25.20;81.90;;;;;;5009172;28;20205;-74
2022/05/10 12:12:59;;;;;;;2.85;2.65;;;25.40;81.00;;;;;;5009403;28;20216;-74
2022/05/10 12:21:20;;;;;;;3.15;2.85;;;25.50;80.60;;;;;;5008846;28;20213;-75
2022/05/10 12:24:09;;;;;;;3.25;2.42;;;25.40;79.90;;;;;;5008766;28;20209;-74
2022/05/10 12:26:44;;;;;;;2.60;2.45;;;25.40;83.00;;;;;;5009088;28;20281;-73
2022/05/10 12:29:57;;;;;;;4.75;2.95;;;25.30;82.40;;;;;;5008791;28;20750;-74
2022/05/10 12:32:42;;;;;;;2.85;2.65;;;25.20;83.00;;;;;;5008113;28;20695;-74
2022/05/10 12:35:10;;;;;;;2.90;2.70;;;25.20;83.30;;;;;;5008784;28;20213;-74
2022/05/10 12:37:58;;;;;;;5.20;2.60;;;25.10;81.70;;;;;;5008826;28;20219;-74
2022/05/10 12:41:01;;;;;;;2.85;2.65;;;25.00;84.50;;;;;;5008389;28;20213;-74
2022/05/10 12:44:06;;;;;;;2.60;2.50;;;25.00;83.60;;;;;;5008445;28;20209;-74
2022/05/10 12:46:40;;;;;;;3.08;2.75;;;25.20;80.80;;;;;;5008191;28;20283;-74
2022/05/10 12:49:33;;;;;;;4.57;2.63;;;25.30;81.00;;;;;;5008456;28;20251;-74
2022/05/10 12:52:19;;;;;;;7.40;3.17;;;25.60;80.80;;;;;;5008514;28;20193;-74
2022/05/10 12:54:48;;;;;;;3.90;2.75;;;25.70;81.00;;;;;;5008230;28;20284;-74
2022/05/10 12:57:24;;;;;;;3.35;2.45;;;25.80;81.10;;;;;;5008297;28;20229;-74
2022/05/10 13:00:00;;;;;;;3.65;2.50;;;26.00;83.80;;;;;;5020463;28;20834;-74
2022/05/10 13:02:29;;;;;;;6.25;2.50;;;26.10;83.40;;;;;;5027425;28;20342;-74
2022/05/10 13:05:00;;;;;;;2.60;2.40;;;26.30;82.70;;;;;;5012104;28;20217;-74
2022/05/10 13:07:48;;;;;;;3.00;2.80;;;26.30;81.70;;;;;;5008340;28;20340;-74
2022/05/10 13:10:20;;;;;;;5.28;2.83;;;26.30;77.30;;;;;;5008273;28;20541;-74
2022/05/10 13:12:52;;;;;;;4.18;2.78;;;26.10;77.70;;;;;;5008321;28;20289;-74
2022/05/10 13:15:22;;;;;;;2.35;2.20;;;26.20;78.30;;;;;;5008282;28;20707;-74
2022/05/10 13:17:54;;;;;;;2.70;2.50;;;26.30;78.30;;;;;;5008279;28;20220;-74
2022/05/10 13:20:24;;;;;;;2.80;2.60;;;26.30;80.70;;;;;;5008361;28;20607;-74
2022/05/10 13:22:54;;;;;;;2.60;2.28;;;26.10;80.70;;;;;;5008208;28;20275;-74
2022/05/10 13:25:28;;;;;;;3.95;2.80;;;26.10;82.60;;;;;;5007977;28;21059;-74
2022/05/10 13:28:09;;;;;;;4.20;2.70;;;26.20;79.30;;;;;;5007931;28;20204;-74